Time;durP1;ratioP1;P1;durP2;ratioP2;P2;SDS_P1;SDS_P2;PMS_P1;PMS_P2;Temp;Humidity;BMP_temperature;BMP_pressure;BME280_temperature;BME280_humidity;BME280_pressure;Samples;Min_cycle;Max_cycle;Signal;HPM_P1;HPM_P2
2022/02/15 00:02:03;;;;;;;11.05;4.65;;;;;;;4.11;78.11;94824.72;4997285;28;20049;-77
2022/02/15 00:04:28;;;;;;;11.32;4.60;;;;;;;4.13;77.64;94827.84;4988915;28;20050;-77
2022/02/15 00:06:54;;;;;;;11.75;4.90;;;;;;;3.99;78.62;94812.63;4987795;28;20054;-75
2022/02/15 00:09:19;;;;;;;12.68;4.90;;;;;;;3.81;79.65;94820.75;4991424;28;20038;-77
2022/02/15 00:11:45;;;;;;;8.80;4.32;;;;;;;3.61;80.51;94821.31;4988519;28;20049;-77
2022/02/15 00:14:10;;;;;;;10.85;4.72;;;;;;;3.70;80.77;94819.06;4988705;28;20042;-78
2022/02/15 00:16:36;;;;;;;10.73;4.60;;;;;;;3.79;79.80;94817.59;4988711;28;20089;-77
2022/02/15 00:19:02;;;;;;;10.27;4.72;;;;;;;3.56;80.77;94824.63;4975917;28;20409;-78
2022/02/15 00:21:28;;;;;;;13.85;4.93;;;;;;;3.55;80.89;94832.66;4990728;28;20105;-76
2022/02/15 00:23:53;;;;;;;12.10;4.40;;;;;;;3.51;81.37;94827.16;5000569;28;20424;-77
2022/02/15 00:26:19;;;;;;;9.77;4.40;;;;;;;3.39;82.48;94834.28;4997023;28;20731;-76
2022/02/15 00:28:44;;;;;;;10.18;4.30;;;;;;;3.33;82.28;94840.44;4981965;28;20459;-76
2022/02/15 00:31:10;;;;;;;9.40;4.53;;;;;;;3.59;81.35;94834.56;4989323;28;20049;-77
2022/02/15 00:33:35;;;;;;;10.23;4.75;;;;;;;3.25;82.44;94845.03;4979378;28;20047;-76
2022/02/15 00:36:01;;;;;;;11.13;5.07;;;;;;;3.29;83.94;94840.94;4988901;28;20038;-76
2022/02/15 00:38:26;;;;;;;9.80;4.72;;;;;;;3.13;84.43;94846.91;5000492;28;20038;-76
2022/02/15 00:40:52;;;;;;;12.30;4.90;;;;;;;3.04;84.85;94843.16;4988483;28;20639;-76
2022/02/15 00:43:18;;;;;;;13.32;4.82;;;;;;;2.98;85.29;94838.91;5000260;28;20054;-76
2022/02/15 00:45:43;;;;;;;11.82;5.10;;;;;;;2.87;86.31;94838.75;5013468;28;20076;-76
2022/02/15 00:48:09;;;;;;;10.85;4.85;;;;;;;2.79;85.59;94836.56;5000975;28;20112;-76
2022/02/15 00:50:35;;;;;;;8.82;3.95;;;;;;;3.27;83.78;94842.97;4987586;28;20045;-77
2022/02/15 00:53:00;;;;;;;10.68;4.45;;;;;;;3.36;82.74;94842.56;4988556;28;20050;-76
2022/02/15 00:55:25;;;;;;;10.82;4.13;;;;;;;3.22;83.52;94844.69;4987502;28;20042;-76
2022/02/15 00:57:51;;;;;;;14.48;5.28;;;;;;;3.28;83.15;94839.34;4989292;28;20042;-76
2022/02/15 01:00:17;;;;;;;9.45;4.45;;;;;;;3.15;84.46;94838.88;4988858;28;20053;-76
2022/02/15 01:02:45;;;;;;;12.32;4.35;;;;;;;3.32;83.06;94849.25;4987692;28;20050;-77
2022/02/15 01:05:11;;;;;;;14.85;4.90;;;;;;;3.43;81.58;94846.59;4995533;28;20041;-76
2022/02/15 01:07:37;;;;;;;11.45;4.88;;;;;;;3.40;81.86;94847.03;4995537;28;20035;-76
2022/02/15 01:10:04;;;;;;;14.43;4.60;;;;;;;3.61;80.21;94848.09;4988703;28;20586;-76
2022/02/15 01:12:30;;;;;;;10.10;4.30;;;;;;;3.72;79.11;94854.22;4986497;28;20054;-76
2022/02/15 01:14:56;;;;;;;14.10;5.75;;;;;;;3.74;79.75;94846.94;4988246;28;20034;-76
2022/02/15 01:17:22;;;;;;;12.05;4.68;;;;;;;3.79;79.89;94843.63;4988479;28;20497;-76
2022/02/15 01:19:47;;;;;;;11.43;5.03;;;;;;;3.80;80.57;94855.59;4987715;28;20397;-76
2022/02/15 01:22:13;;;;;;;13.52;5.00;;;;;;;3.84;80.25;94846.28;4987637;28;20069;-76
2022/02/15 01:24:38;;;;;;;14.38;5.25;;;;;;;3.83;79.68;94857.72;4998441;28;20124;-77
2022/02/15 01:27:04;;;;;;;11.40;4.82;;;;;;;3.77;80.03;94856.09;5000921;28;20042;-76
2022/02/15 01:29:30;;;;;;;11.73;5.10;;;;;;;3.72;80.34;94853.41;5002969;28;20068;-76
2022/02/15 01:31:56;;;;;;;12.55;5.05;;;;;;;3.67;81.50;94861.19;4992256;28;20090;-76
2022/02/15 01:34:21;;;;;;;11.82;5.47;;;;;;;3.72;80.73;94861.22;4986838;28;20097;-76
2022/02/15 01:36:47;;;;;;;15.43;5.28;;;;;;;3.74;81.03;94857.34;4974513;28;20472;-76
2022/02/15 01:39:13;;;;;;;13.30;5.70;;;;;;;3.90;80.73;94865.34;4986563;28;20471;-76
2022/02/15 01:41:39;;;;;;;12.77;5.38;;;;;;;3.92;80.78;94861.50;4990697;28;20073;-76
2022/02/15 01:44:05;;;;;;;12.65;5.80;;;;;;;3.95;81.27;94858.41;4998412;28;20041;-76
2022/02/15 01:46:30;;;;;;;16.60;5.82;;;;;;;3.90;81.17;94858.31;4988751;28;20042;-76
2022/02/15 01:48:56;;;;;;;15.93;5.88;;;;;;;3.65;82.17;94853.63;4998414;28;20034;-76
2022/02/15 01:51:22;;;;;;;16.80;6.43;;;;;;;3.64;83.03;94850.22;4991409;28;20038;-76
2022/02/15 01:53:48;;;;;;;15.80;6.32;;;;;;;3.63;84.32;94848.66;4991660;28;20426;-76
2022/02/15 01:56:15;;;;;;;16.75;5.78;;;;;;;3.71;83.98;94851.88;4992018;28;20440;-76
2022/02/15 01:58:41;;;;;;;14.77;6.20;;;;;;;3.79;84.40;94843.63;4991675;28;20042;-76
2022/02/15 02:01:07;;;;;;;15.88;5.90;;;;;;;3.77;84.67;94835.28;4991001;28;20034;-76
2022/02/15 02:03:33;;;;;;;13.07;5.82;;;;;;;3.79;85.23;94841.81;4993457;28;20608;-76
2022/02/15 02:05:58;;;;;;;14.32;6.18;;;;;;;3.96;84.77;94849.53;4992385;28;20038;-76
2022/02/15 02:08:31;;;;;;;15.45;6.05;;;;;;;4.01;84.80;94850.63;4993574;28;20042;-76
2022/02/15 02:10:58;;;;;;;14.50;5.93;;;;;;;4.18;84.84;94851.34;4975302;28;20409;-76
2022/02/15 02:13:23;;;;;;;16.83;5.53;;;;;;;4.11;85.16;94855.97;4995883;28;20049;-76
2022/02/15 02:15:49;;;;;;;15.20;6.20;;;;;;;4.02;85.78;94855.59;5000156;28;20045;-76
2022/02/15 02:18:16;;;;;;;15.82;6.22;;;;;;;3.93;87.50;94865.66;5006496;28;20097;-76
2022/02/15 02:20:42;;;;;;;14.52;6.20;;;;;;;4.08;86.88;94861.63;4990042;28;20600;-76
2022/02/15 02:23:14;;;;;;;10.77;5.57;;;;;;;4.02;87.20;94867.81;4994011;28;20064;-77
2022/02/15 02:25:39;;;;;;;18.48;6.45;;;;;;;4.07;87.12;94865.28;4991237;28;20057;-77
2022/02/15 02:28:05;;;;;;;14.98;6.22;;;;;;;3.96;88.04;94862.56;4989228;28;20046;-77
2022/02/15 02:30:31;;;;;;;14.55;5.93;;;;;;;4.15;87.41;94863.03;5004182;28;20042;-77
2022/02/15 02:32:56;;;;;;;19.15;6.22;;;;;;;4.18;87.23;94861.78;4983050;28;20515;-76
2022/02/15 02:35:22;;;;;;;15.48;5.90;;;;;;;4.36;87.36;94862.47;4998703;28;20038;-76
2022/02/15 02:37:49;;;;;;;16.92;7.30;;;;;;;4.23;87.26;94864.41;4992021;28;20050;-76
2022/02/15 02:40:15;;;;;;;11.30;5.70;;;;;;;4.34;87.95;94868.69;4989743;28;20042;-76
2022/02/15 02:42:41;;;;;;;15.63;6.13;;;;;;;4.32;88.25;94860.34;4996977;28;20454;-76
2022/02/15 02:45:10;;;;;;;14.65;6.50;;;;;;;4.32;88.33;94867.38;4989720;28;20441;-76
2022/02/15 02:47:36;;;;;;;13.68;6.47;;;;;;;4.23;88.97;94880.03;4985394;28;20074;-76
2022/02/15 02:50:02;;;;;;;13.48;5.78;;;;;;;4.36;89.01;94885.91;4991171;28;20042;-76
2022/02/15 02:52:28;;;;;;;13.13;5.70;;;;;;;4.36;88.80;94878.09;4988557;28;20414;-76
2022/02/15 02:54:54;;;;;;;18.52;5.30;;;;;;;4.26;88.85;94874.34;4995164;28;20042;-76
2022/02/15 02:57:20;;;;;;;12.43;5.70;;;;;;;4.36;89.34;94878.09;4990928;28;20058;-76
2022/02/15 02:59:48;;;;;;;16.40;5.82;;;;;;;4.37;90.05;94879.66;4990852;28;20525;-76
2022/02/15 03:02:16;;;;;;;12.40;5.75;;;;;;;4.37;90.37;94884.88;5011782;28;20049;-76
2022/02/15 03:04:42;;;;;;;13.93;4.72;;;;;;;4.37;90.29;94885.66;4991818;28;20038;-76
2022/02/15 03:07:07;;;;;;;15.82;5.70;;;;;;;4.30;91.47;94896.28;5006411;28;20046;-76
2022/02/15 03:09:33;;;;;;;11.85;5.38;;;;;;;4.32;91.48;94894.22;4988981;28;20164;-77
2022/02/15 03:11:59;;;;;;;15.18;5.28;;;;;;;4.22;91.98;94894.09;4979342;28;20061;-76
2022/02/15 03:14:24;;;;;;;11.85;5.38;;;;;;;4.20;92.11;94896.16;4990197;28;20453;-77
2022/02/15 03:16:50;;;;;;;10.82;4.53;;;;;;;4.24;92.15;94901.66;4986406;28;20046;-76
2022/02/15 03:19:16;;;;;;;11.15;5.05;;;;;;;4.13;92.74;94903.38;4988087;28;20046;-76
2022/02/15 03:21:42;;;;;;;7.80;3.63;;;;;;;4.25;92.61;94909.25;4989824;28;20038;-76
2022/02/15 03:24:08;;;;;;;9.10;3.83;;;;;;;4.12;93.26;94920.81;4988539;28;20039;-76
2022/02/15 03:26:34;;;;;;;8.02;3.55;;;;;;;4.13;93.78;94916.41;4976688;28;20420;-76
2022/02/15 03:29:00;;;;;;;11.55;3.47;;;;;;;4.02;93.26;94930.31;4991445;28;20038;-77
2022/02/15 03:31:26;;;;;;;6.68;3.47;;;;;;;4.07;93.97;94922.56;4992481;28;20038;-77
2022/02/15 03:33:52;;;;;;;7.53;3.10;;;;;;;4.10;94.65;94922.09;4992937;28;20493;-77
2022/02/15 03:36:17;;;;;;;6.20;3.00;;;;;;;3.93;95.20;94922.91;4985144;28;20090;-76
2022/02/15 03:38:43;;;;;;;9.30;3.33;;;;;;;3.96;95.44;94925.03;4975106;28;20585;-76
2022/02/15 03:43:54;;;;;;;5.35;2.75;;;;;;;3.89;96.77;94934.84;4990163;28;20046;-76
2022/02/15 03:46:23;;;;;;;8.90;2.97;;;;;;;3.92;96.15;94946.59;4992570;28;20188;-76
2022/02/15 03:48:49;;;;;;;7.18;3.10;;;;;;;3.87;96.60;94939.50;4980705;28;20074;-76
2022/02/15 03:51:17;;;;;;;8.05;2.88;;;;;;;3.81;97.22;94945.69;4996441;28;20045;-76
2022/02/15 03:53:42;;;;;;;7.38;3.00;;;;;;;3.87;97.00;94944.72;4989510;28;20049;-76
2022/02/15 03:56:09;;;;;;;6.40;3.13;;;;;;;3.67;98.00;94944.44;4978275;28;20789;-76
2022/02/15 03:58:36;;;;;;;5.72;2.53;;;;;;;3.69;98.13;94947.59;4979859;28;20038;-76
2022/02/15 04:01:02;;;;;;;6.80;3.00;;;;;;;3.75;98.82;94941.41;4987118;28;20046;-76
2022/02/15 04:03:27;;;;;;;6.82;3.17;;;;;;;3.71;98.75;94946.34;4986282;28;20046;-76
2022/02/15 04:05:54;;;;;;;6.40;3.13;;;;;;;3.60;99.32;94945.38;4985244;28;20562;-76
2022/02/15 04:08:21;;;;;;;7.32;3.33;;;;;;;3.46;100.00;94949.34;4992179;28;20623;-76
2022/02/15 04:10:48;;;;;;;5.65;2.83;;;;;;;3.43;100.00;94949.81;4991607;28;20042;-75
2022/02/15 04:13:15;;;;;;;6.75;2.97;;;;;;;3.37;100.00;94945.56;4997246;28;20057;-76
2022/02/15 04:15:40;;;;;;;9.02;3.10;;;;;;;3.44;100.00;94956.59;4988667;28;20397;-76
2022/02/15 04:18:06;;;;;;;6.10;2.65;;;;;;;3.49;100.00;94954.06;4989660;28;20045;-76
2022/02/15 04:20:31;;;;;;;8.13;2.90;;;;;;;3.38;100.00;94952.38;4989186;28;20093;-76
2022/02/15 04:22:57;;;;;;;5.38;2.80;;;;;;;3.35;100.00;94958.00;4988873;28;20053;-76
2022/02/15 04:25:23;;;;;;;6.65;2.63;;;;;;;3.41;100.00;94957.09;4995573;28;20174;-76
2022/02/15 04:27:48;;;;;;;6.70;3.35;;;;;;;3.40;100.00;94963.31;4989505;28;20046;-76
2022/02/15 04:30:14;;;;;;;9.73;2.72;;;;;;;3.41;100.00;94973.47;4992819;28;20116;-76
2022/02/15 04:32:39;;;;;;;7.90;3.50;;;;;;;3.37;100.00;94969.00;4992731;28;20077;-77
2022/02/15 04:35:06;;;;;;;5.55;2.50;;;;;;;3.37;100.00;94966.38;4989070;28;20101;-77
2022/02/15 04:37:31;;;;;;;8.75;3.13;;;;;;;3.29;100.00;94963.16;4989306;28;20506;-77
2022/02/15 04:39:56;;;;;;;5.85;2.97;;;;;;;3.35;100.00;94968.41;4993597;28;20030;-77
2022/02/15 04:42:23;;;;;;;8.23;3.40;;;;;;;3.29;100.00;94965.75;4987240;28;20046;-77
2022/02/15 04:44:49;;;;;;;7.80;3.40;;;;;;;3.22;100.00;94970.31;4995316;28;20130;-77
2022/02/15 04:47:15;;;;;;;10.35;3.33;;;;;;;3.21;100.00;94968.75;4989087;28;20052;-77
2022/02/15 04:49:40;;;;;;;9.45;3.15;;;;;;;3.21;100.00;94965.34;4989353;28;20042;-77
2022/02/15 04:52:06;;;;;;;7.00;3.25;;;;;;;3.19;100.00;94973.41;4996641;28;20469;-76
2022/02/15 04:54:32;;;;;;;7.72;3.13;;;;;;;3.22;100.00;94969.50;5003429;28;20591;-76
2022/02/15 04:56:58;;;;;;;9.07;3.50;;;;;;;3.20;100.00;94977.56;4984024;28;20597;-76
2022/02/15 04:59:23;;;;;;;7.45;3.22;;;;;;;3.16;100.00;94986.88;4980752;28;20046;-76
2022/02/15 05:01:49;;;;;;;7.55;3.50;;;;;;;3.16;100.00;94979.06;4992845;28;20054;-76
2022/02/15 05:06:58;;;;;;;10.23;3.97;;;;;;;3.14;100.00;94983.69;4992348;28;20053;-77
2022/02/15 05:09:26;;;;;;;8.60;3.55;;;;;;;3.09;100.00;94983.63;4995359;28;20046;-76
2022/02/15 05:11:51;;;;;;;10.55;3.63;;;;;;;3.12;100.00;94988.38;5004210;28;20087;-76
2022/02/15 05:14:17;;;;;;;6.80;3.25;;;;;;;3.11;100.00;94989.38;4992977;28;20424;-75
2022/02/15 05:16:42;;;;;;;8.45;3.47;;;;;;;3.07;100.00;94993.47;4991638;28;20042;-75
2022/02/15 05:19:08;;;;;;;9.20;3.78;;;;;;;3.10;100.00;94993.00;4992814;28;20042;-76
2022/02/15 05:21:33;;;;;;;8.55;3.70;;;;;;;3.12;100.00;95006.56;4992587;28;20539;-77
2022/02/15 05:23:59;;;;;;;9.95;3.70;;;;;;;3.14;100.00;94998.53;4988374;28;20054;-77
2022/02/15 05:26:25;;;;;;;9.90;3.67;;;;;;;3.10;100.00;94995.59;4992146;28;20047;-76
2022/02/15 05:28:51;;;;;;;8.00;3.55;;;;;;;3.09;100.00;95001.84;4996652;28;20488;-77
2022/02/15 05:31:16;;;;;;;9.95;3.17;;;;;;;3.11;100.00;95010.19;5002821;28;20496;-77
2022/02/15 05:33:42;;;;;;;9.30;3.35;;;;;;;3.05;100.00;95005.91;4991658;28;20043;-77
2022/02/15 05:36:07;;;;;;;9.63;3.30;;;;;;;3.06;100.00;95002.28;4991794;28;20518;-77
2022/02/15 05:38:33;;;;;;;9.18;3.30;;;;;;;3.04;100.00;95006.94;4992026;28;20046;-77
2022/02/15 05:40:59;;;;;;;11.55;3.65;;;;;;;2.96;100.00;95013.31;5005532;28;20046;-77
2022/02/15 05:43:24;;;;;;;11.27;3.85;;;;;;;2.97;100.00;95009.66;4992357;28;20049;-77
2022/02/15 05:45:50;;;;;;;8.95;3.28;;;;;;;2.93;100.00;95019.75;4991669;28;20042;-77
2022/02/15 05:48:15;;;;;;;8.18;3.00;;;;;;;2.93;100.00;95019.75;4992212;28;20038;-77
2022/02/15 05:50:50;;;;;;;9.43;3.40;;;;;;;2.85;100.00;95025.31;5003314;28;20041;-77
2022/02/15 05:53:19;;;;;;;;;;;;;;;2.76;100.00;95024.13;4981771;28;20447;-77
2022/02/15 05:55:45;;;;;;;7.68;3.03;;;;;;;2.81;100.00;95026.81;4991260;28;20607;-76
2022/02/15 05:58:11;;;;;;;10.48;4.00;;;;;;;2.84;100.00;95036.72;4991080;28;20042;-77
2022/02/15 06:00:36;;;;;;;7.72;4.20;;;;;;;2.91;100.00;95037.38;4991221;28;20035;-77
2022/02/15 06:04:09;;;;;;;10.13;3.67;;;;;;;2.81;100.00;95026.03;4997141;28;20038;-77
2022/02/15 06:05:48;;;;;;;10.05;3.83;;;;;;;2.86;100.00;95024.31;4991845;28;20642;-77
2022/02/15 06:08:13;;;;;;;5.13;2.60;;;;;;;2.91;100.00;95039.19;4994853;28;20046;-77
2022/02/15 06:10:39;;;;;;;9.85;3.28;;;;;;;2.83;100.00;95032.56;4996919;28;20160;-77
2022/02/15 06:13:04;;;;;;;8.98;3.42;;;;;;;2.92;100.00;95038.97;4989397;28;20455;-77
2022/02/15 06:15:30;;;;;;;9.68;3.08;;;;;;;2.92;100.00;95044.16;4989508;28;20042;-77
2022/02/15 06:17:55;;;;;;;10.15;3.95;;;;;;;2.93;100.00;95050.94;4990664;28;20471;-76
2022/02/15 06:20:21;;;;;;;9.82;3.55;;;;;;;2.91;100.00;95047.78;4990221;28;20045;-75
2022/02/15 06:22:46;;;;;;;12.45;3.83;;;;;;;2.72;100.00;95059.38;4990981;28;20077;-75
2022/02/15 06:25:12;;;;;;;8.23;3.33;;;;;;;2.83;100.00;95050.75;5000189;28;20500;-75
2022/02/15 06:27:37;;;;;;;8.85;3.63;;;;;;;2.85;100.00;95048.72;4983568;28;20519;-75
2022/02/15 06:30:04;;;;;;;10.45;3.90;;;;;;;2.84;100.00;95047.13;4990245;28;20515;-76
2022/02/15 06:32:29;;;;;;;10.45;3.40;;;;;;;2.82;100.00;95054.38;4989360;28;20629;-75
2022/02/15 06:34:55;;;;;;;7.13;3.65;;;;;;;2.81;100.00;95057.97;4991564;28;20042;-75
2022/02/15 06:37:20;;;;;;;7.72;3.45;;;;;;;2.77;100.00;95062.06;4986575;28;20492;-76
2022/02/15 06:39:47;;;;;;;11.55;3.53;;;;;;;2.76;100.00;95065.69;4987881;28;20123;-76
2022/02/15 06:42:12;;;;;;;8.93;3.47;;;;;;;2.75;100.00;95064.13;4990340;28;20113;-78
2022/02/15 06:44:38;;;;;;;9.55;4.10;;;;;;;2.74;100.00;95071.13;4988781;28;20042;-75
2022/02/15 06:47:04;;;;;;;11.82;4.20;;;;;;;2.73;100.00;95077.34;4990763;28;20117;-76
2022/02/15 06:49:30;;;;;;;11.90;4.03;;;;;;;2.76;100.00;95081.28;4989112;28;20049;-76
2022/02/15 06:51:56;;;;;;;10.15;4.10;;;;;;;2.72;100.00;95080.94;4988798;28;20435;-74
2022/02/15 06:54:21;;;;;;;9.13;4.18;;;;;;;2.72;100.00;95080.16;4990821;28;20251;-77
2022/02/15 06:56:47;;;;;;;9.82;3.78;;;;;;;2.70;100.00;95089.97;4989481;28;20042;-76
2022/02/15 06:59:13;;;;;;;8.23;3.40;;;;;;;2.65;100.00;95089.91;4990614;28;20077;-76
2022/02/15 07:01:41;;;;;;;9.00;4.03;;;;;;;2.64;100.00;95088.31;4990444;28;20042;-77
2022/02/15 07:04:07;;;;;;;11.48;3.75;;;;;;;2.64;100.00;95093.50;4991523;28;20045;-76
2022/02/15 07:06:32;;;;;;;10.10;3.95;;;;;;;2.62;100.00;95100.75;4991041;28;20050;-76
2022/02/15 07:08:58;;;;;;;9.43;4.05;;;;;;;2.66;100.00;95101.84;4991199;28;20061;-75
2022/02/15 07:11:24;;;;;;;9.40;3.97;;;;;;;2.67;100.00;95104.25;5006068;28;20038;-77
2022/02/15 07:13:50;;;;;;;11.07;4.22;;;;;;;2.70;100.00;95108.97;4990603;28;20512;-76
2022/02/15 07:16:17;;;;;;;11.20;4.00;;;;;;;2.68;100.00;95115.41;4989505;28;20121;-76
2022/02/15 07:18:44;;;;;;;10.85;4.47;;;;;;;2.68;100.00;95120.63;4989306;28;20083;-76
2022/02/15 07:21:10;;;;;;;8.85;3.53;;;;;;;2.68;100.00;95126.59;4986124;28;20043;-76
2022/02/15 07:23:35;;;;;;;14.45;4.40;;;;;;;2.64;100.00;95122.09;4985465;28;20125;-75
2022/02/15 07:26:02;;;;;;;12.32;3.67;;;;;;;2.71;100.00;95125.34;4992649;28;20042;-79
2022/02/15 07:28:28;;;;;;;9.55;4.03;;;;;;;2.70;100.00;95121.16;4990456;28;20046;-76
2022/02/15 07:30:55;;;;;;;8.52;4.07;;;;;;;2.70;100.00;95123.75;4989876;28;20093;-73
2022/02/15 07:33:21;;;;;;;14.25;4.47;;;;;;;2.71;100.00;95125.34;4987079;28;20046;-75
2022/02/15 07:35:47;;;;;;;9.05;3.85;;;;;;;2.71;100.00;95130.53;4988754;28;20038;-76
2022/02/15 07:38:13;;;;;;;9.45;4.53;;;;;;;2.68;100.00;95136.22;4992400;28;20092;-76
2022/02/15 07:40:39;;;;;;;12.88;4.40;;;;;;;2.67;100.00;95134.63;4990878;28;20054;-78
2022/02/15 07:43:11;;;;;;;9.45;4.72;;;;;;;2.65;100.00;95136.66;5144436;27;20382;-79
2022/02/15 07:45:39;;;;;;;11.57;5.18;;;;;;;2.69;100.00;95137.78;5119392;27;20046;-78
2022/02/15 07:48:04;;;;;;;9.55;4.18;;;;;;;2.83;100.00;95133.13;5113452;27;20047;-77
2022/02/15 07:50:30;;;;;;;13.15;5.97;;;;;;;2.87;100.00;95135.03;5121490;27;20055;-76
2022/02/15 07:52:57;;;;;;;14.82;5.47;;;;;;;2.88;100.00;95147.00;5113842;27;20040;-76
2022/02/15 07:55:23;;;;;;;12.45;5.05;;;;;;;2.93;100.00;95154.13;5119982;27;20040;-76
2022/02/15 07:57:49;;;;;;;16.30;6.00;;;;;;;3.01;100.00;95145.19;5119610;27;20044;-76
2022/02/15 08:00:20;;;;;;;18.23;6.90;;;;;;;2.98;100.00;95148.25;5108529;28;20040;-77
2022/02/15 08:02:51;;;;;;;13.02;5.70;;;;;;;2.91;100.00;95151.75;5111943;27;20035;-77
2022/02/15 08:05:17;;;;;;;15.70;6.30;;;;;;;2.87;100.00;95147.25;5122427;27;20036;-76
2022/02/15 08:07:45;;;;;;;15.43;6.22;;;;;;;2.88;100.00;95152.22;5108660;28;20337;-77
2022/02/15 08:10:11;;;;;;;16.58;6.05;;;;;;;2.86;100.00;95148.25;5113631;27;20414;-77
2022/02/15 08:12:36;;;;;;;15.27;5.78;;;;;;;2.88;100.00;95147.00;5106284;28;20044;-77
2022/02/15 08:15:03;;;;;;;17.65;6.40;;;;;;;2.82;100.00;95147.94;5119832;27;20047;-77
2022/02/15 08:17:28;;;;;;;18.67;6.95;;;;;;;2.88;100.00;95151.44;5115226;27;20044;-77
2022/02/15 08:19:54;;;;;;;16.77;6.60;;;;;;;2.84;100.00;95156.28;5115668;27;20046;-77
2022/02/15 08:22:21;;;;;;;12.23;5.22;;;;;;;2.93;100.00;95156.72;5116182;28;20032;-77
2022/02/15 08:24:47;;;;;;;12.27;5.50;;;;;;;2.93;100.00;95154.91;5123418;28;20050;-77
2022/02/15 08:27:14;;;;;;;16.42;6.43;;;;;;;2.95;100.00;95152.88;5119982;27;20040;-76
2022/02/15 08:29:39;;;;;;;10.90;5.22;;;;;;;2.95;100.00;95158.06;5111096;28;20058;-77
2022/02/15 08:32:05;;;;;;;11.50;5.45;;;;;;;3.01;100.00;95155.59;5117865;28;20485;-77
2022/02/15 08:34:32;;;;;;;13.35;5.15;;;;;;;3.01;100.00;95155.59;5108212;27;20044;-77
2022/02/15 08:36:59;;;;;;;10.93;5.20;;;;;;;3.06;100.00;95163.47;5120064;27;20078;-77
2022/02/15 08:39:25;;;;;;;11.23;4.63;;;;;;;3.03;100.00;95163.94;5125086;27;20054;-76
2022/02/15 08:41:51;;;;;;;14.98;4.60;;;;;;;3.02;100.00;95175.38;5121193;28;20047;-77
2022/02/15 08:44:17;;;;;;;12.35;5.10;;;;;;;3.00;100.00;95165.16;5105799;28;20521;-77
2022/02/15 08:46:42;;;;;;;13.30;5.05;;;;;;;2.99;100.00;95168.81;5113947;28;20043;-77
2022/02/15 08:49:08;;;;;;;11.05;4.38;;;;;;;3.01;100.00;95176.38;5106731;27;20051;-76
2022/02/15 08:51:37;;;;;;;10.25;4.65;;;;;;;3.03;100.00;95171.72;5105638;28;20054;-77
2022/02/15 08:54:03;;;;;;;8.65;4.03;;;;;;;3.09;100.00;95179.41;5115483;27;20036;-77
2022/02/15 08:56:29;;;;;;;11.90;4.50;;;;;;;3.12;100.00;95183.38;5108672;28;20036;-77
2022/02/15 08:58:55;;;;;;;9.43;4.38;;;;;;;3.13;100.00;95179.72;5100539;28;20036;-77
2022/02/15 09:01:20;;;;;;;10.95;3.97;;;;;;;3.18;100.00;95187.63;5100178;27;20036;-77
2022/02/15 09:03:46;;;;;;;10.93;4.00;;;;;;;3.21;100.00;95183.78;5116881;27;20039;-77
2022/02/15 09:06:12;;;;;;;9.73;4.15;;;;;;;3.28;100.00;95182.63;5101666;27;20036;-77
2022/02/15 09:08:37;;;;;;;9.23;3.78;;;;;;;3.31;100.00;95186.59;5106995;28;20036;-77
2022/02/15 09:11:03;;;;;;;10.93;3.95;;;;;;;3.37;100.00;95197.88;5106676;28;20742;-77
2022/02/15 09:13:28;;;;;;;11.73;3.45;;;;;;;3.43;100.00;95194.34;5110685;27;20044;-77
2022/02/15 09:15:54;;;;;;;8.00;3.15;;;;;;;3.42;100.00;95182.34;5113023;27;20041;-77
2022/02/15 09:18:20;;;;;;;9.07;3.13;;;;;;;3.46;100.00;95192.09;5093335;27;20060;-77
2022/02/15 09:20:45;;;;;;;10.85;3.15;;;;;;;3.49;100.00;95197.84;5094398;28;20043;-77
2022/02/15 09:23:11;;;;;;;8.95;3.25;;;;;;;3.61;100.00;95185.59;5101574;28;20096;-76
2022/02/15 09:25:36;;;;;;;5.45;2.60;;;;;;;3.64;100.00;95190.31;5098884;28;20036;-77
2022/02/15 09:28:03;;;;;;;6.13;2.60;;;;;;;3.63;100.00;95186.94;5096887;28;20043;-77
2022/02/15 09:30:29;;;;;;;5.63;2.80;;;;;;;3.68;100.00;95185.41;5111809;27;20046;-77
2022/02/15 09:32:54;;;;;;;6.40;2.75;;;;;;;3.74;100.00;95184.50;5105876;27;20039;-77
2022/02/15 09:35:20;;;;;;;4.93;2.70;;;;;;;3.73;100.00;95177.72;5102708;27;20081;-77
2022/02/15 09:37:46;;;;;;;4.75;2.40;;;;;;;3.77;100.00;95179.59;5094545;28;20429;-77
2022/02/15 09:40:13;;;;;;;7.38;3.25;;;;;;;3.81;100.00;95185.94;5099791;28;20044;-77
2022/02/15 09:42:39;;;;;;;6.78;2.53;;;;;;;3.75;100.00;95196.47;5102880;28;20096;-78
2022/02/15 09:45:07;;;;;;;8.02;2.63;;;;;;;3.83;100.00;95198.72;5093559;28;20098;-77
2022/02/15 09:47:35;;;;;;;5.93;2.70;;;;;;;3.93;100.00;95193.66;5122728;27;20072;-77
2022/02/15 09:50:06;;;;;;;6.43;2.20;;;;;;;3.94;100.00;95195.25;5126028;27;20039;-77
2022/02/15 09:52:32;;;;;;;7.57;2.50;;;;;;;3.95;100.00;95202.06;5101277;27;20051;-77
2022/02/15 09:55:00;;;;;;;9.20;2.60;;;;;;;4.00;100.00;95198.75;5090686;28;20059;-77
2022/02/15 09:57:26;;;;;;;10.68;2.83;;;;;;;4.05;100.00;95208.44;5090002;28;20131;-76
2022/02/15 09:59:54;;;;;;;4.82;2.65;;;;;;;4.12;100.00;95206.47;5094106;28;20040;-77
2022/02/15 10:02:25;;;;;;;6.88;2.60;;;;;;;4.13;100.00;95208.06;5100846;28;20703;-79
2022/02/15 10:04:53;;;;;;;5.18;2.58;;;;;;;4.17;100.00;95209.19;5097654;28;20115;-77
2022/02/15 10:07:19;;;;;;;5.10;2.45;;;;;;;4.30;100.00;95219.28;5098092;28;20042;-79
2022/02/15 10:09:55;;;;;;;5.50;2.70;;;;;;;4.33;100.00;95224.00;5105906;28;20044;-77
2022/02/15 10:12:24;;;;;;;6.55;2.63;;;;;;;4.22;100.00;95226.69;5100191;28;20040;-78
2022/02/15 10:14:54;;;;;;;6.40;2.65;;;;;;;4.38;100.00;95235.56;5090697;28;20505;-77
2022/02/15 10:17:22;;;;;;;7.68;2.65;;;;;;;4.40;100.00;95236.13;5104553;27;20032;-76
2022/02/15 10:19:49;;;;;;;5.35;2.60;;;;;;;4.40;100.00;95228.31;5107882;28;20036;-77
2022/02/15 10:22:17;;;;;;;6.03;2.47;;;;;;;4.33;100.00;95234.44;5106261;27;20103;-78
2022/02/15 10:24:52;;;;;;;8.40;2.40;;;;;;;4.29;100.00;95233.31;5107546;27;20040;-77
2022/02/15 10:27:17;;;;;;;4.95;2.20;;;;;;;4.43;100.00;95222.63;5091483;28;20048;-77
2022/02/15 10:29:44;;;;;;;3.15;1.45;;;;;;;4.48;100.00;95230.50;5091538;28;20043;-77
2022/02/15 10:32:17;;;;;;;2.85;1.30;;;;;;;4.47;100.00;95228.94;5096585;28;20034;-77
2022/02/15 10:34:49;;;;;;;3.33;1.48;;;;;;;4.40;100.00;95228.31;5097906;28;20043;-77
2022/02/15 10:37:16;;;;;;;4.82;1.70;;;;;;;4.49;100.00;95226.88;5096711;27;20040;-77
2022/02/15 10:39:45;;;;;;;4.40;1.70;;;;;;;4.54;100.00;95224.34;5099734;27;20035;-77
2022/02/15 10:42:17;;;;;;;5.68;1.92;;;;;;;4.54;100.00;95234.78;5097962;28;20389;-79
2022/02/15 10:45:02;;;;;;;3.97;2.00;;;;;;;4.48;100.00;95238.31;5100528;27;20559;-77
2022/02/15 10:47:33;;;;;;;4.03;1.85;;;;;;;4.46;100.00;95230.72;5097789;28;20044;-77
2022/02/15 10:50:05;;;;;;;7.22;2.03;;;;;;;4.63;100.00;95230.72;5111038;28;20209;-77
2022/02/15 10:52:30;;;;;;;5.38;2.20;;;;;;;4.58;100.00;95235.06;5101572;27;20050;-78
2022/02/15 10:54:56;;;;;;;5.97;2.03;;;;;;;4.59;100.00;95234.84;5117035;27;20035;-78
2022/02/15 10:57:23;;;;;;;4.30;1.98;;;;;;;4.68;100.00;95236.03;5090860;27;20513;-77
2022/02/15 10:59:52;;;;;;;5.15;2.03;;;;;;;4.81;100.00;95229.69;5092274;28;20040;-77
2022/02/15 11:02:26;;;;;;;3.15;1.67;;;;;;;4.73;99.99;95232.69;5091234;28;20036;-77
2022/02/15 11:04:54;;;;;;;3.78;1.83;;;;;;;4.73;99.81;95237.91;5101335;28;20048;-79
2022/02/15 11:07:23;;;;;;;4.82;2.08;;;;;;;4.71;100.00;95233.97;5110079;28;20464;-78
2022/02/15 11:10:22;;;;;;;3.63;1.88;;;;;;;4.86;100.00;95236.78;5097144;27;20577;-77
2022/02/15 11:12:51;;;;;;;4.20;2.10;;;;;;;4.72;99.71;95230.34;5094754;28;20493;-78
2022/02/15 11:15:21;;;;;;;5.50;2.00;;;;;;;4.86;99.74;95236.78;5094521;28;20039;-78
2022/02/15 11:17:49;;;;;;;5.32;2.40;;;;;;;4.80;99.39;95232.53;5103924;28;20038;-78
2022/02/15 11:20:18;;;;;;;5.50;2.40;;;;;;;4.75;100.00;95228.03;5105926;27;20047;-77
2022/02/15 11:22:47;;;;;;;6.05;2.50;;;;;;;4.83;99.37;95232.06;5102349;28;20044;-77
2022/02/15 11:25:12;;;;;;;4.82;2.03;;;;;;;4.84;98.96;95236.22;5097788;28;20051;-77
2022/02/15 11:27:38;;;;;;;6.57;2.13;;;;;;;4.88;99.42;95234.72;5090316;28;20043;-77
2022/02/15 11:30:12;;;;;;;5.38;2.10;;;;;;;4.82;99.81;95235.69;5093082;28;20158;-79
2022/02/15 11:32:42;;;;;;;4.50;2.22;;;;;;;4.85;99.53;95230.78;5102788;28;20512;-77
2022/02/15 11:35:12;;;;;;;6.45;2.22;;;;;;;4.81;99.69;95239.31;5098162;28;20036;-77
2022/02/15 11:37:38;;;;;;;4.82;2.55;;;;;;;4.64;99.91;95229.72;5110543;27;20110;-78